sensor_id;sensor_type;location;lat;lon;timestamp;P1;durP1;ratioP1;P2;durP2;ratioP2
11189;SDS011;5651;50.926;4.718;2023-02-01T00:01:35;25.50;;;10.32;;
11189;SDS011;5651;50.926;4.718;2023-02-01T00:04:01;25.00;;;10.15;;
11189;SDS011;5651;50.926;4.718;2023-02-01T00:06:26;20.40;;;10.43;;
11189;SDS011;5651;50.926;4.718;2023-02-01T00:08:53;31.30;;;11.43;;
11189;SDS011;5651;50.926;4.718;2023-02-01T00:11:19;26.00;;;11.00;;
11189;SDS011;5651;50.926;4.718;2023-02-01T00:13:45;23.50;;;9.93;;
11189;SDS011;5651;50.926;4.718;2023-02-01T00:16:12;30.85;;;9.68;;
11189;SDS011;5651;50.926;4.718;2023-02-01T00:18:43;24.90;;;10.05;;
11189;SDS011;5651;50.926;4.718;2023-02-01T00:21:10;26.70;;;10.45;;
11189;SDS011;5651;50.926;4.718;2023-02-01T00:23:37;31.23;;;9.77;;
11189;SDS011;5651;50.926;4.718;2023-02-01T00:26:04;27.75;;;9.40;;
11189;SDS011;5651;50.926;4.718;2023-02-01T00:28:31;27.05;;;9.57;;
11189;SDS011;5651;50.926;4.718;2023-02-01T00:31:01;25.35;;;9.00;;
11189;SDS011;5651;50.926;4.718;2023-02-01T00:33:28;24.20;;;8.77;;
11189;SDS011;5651;50.926;4.718;2023-02-01T00:36:02;27.70;;;8.40;;
11189;SDS011;5651;50.926;4.718;2023-02-01T00:38:30;22.65;;;8.10;;
11189;SDS011;5651;50.926;4.718;2023-02-01T00:41:06;22.67;;;7.97;;
11189;SDS011;5651;50.926;4.718;2023-02-01T00:43:36;23.20;;;9.93;;
11189;SDS011;5651;50.926;4.718;2023-02-01T00:46:02;19.98;;;6.78;;
11189;SDS011;5651;50.926;4.718;2023-02-01T00:48:28;20.00;;;7.65;;
11189;SDS011;5651;50.926;4.718;2023-02-01T00:50:54;22.10;;;7.63;;
11189;SDS011;5651;50.926;4.718;2023-02-01T00:53:24;29.40;;;8.60;;
11189;SDS011;5651;50.926;4.718;2023-02-01T00:55:50;23.17;;;7.90;;
11189;SDS011;5651;50.926;4.718;2023-02-01T00:58:15;33.28;;;7.60;;
11189;SDS011;5651;50.926;4.718;2023-02-01T01:00:47;23.83;;;7.97;;
11189;SDS011;5651;50.926;4.718;2023-02-01T01:03:14;23.35;;;7.88;;
11189;SDS011;5651;50.926;4.718;2023-02-01T01:05:43;19.67;;;7.25;;
11189;SDS011;5651;50.926;4.718;2023-02-01T01:08:10;23.38;;;7.10;;
11189;SDS011;5651;50.926;4.718;2023-02-01T01:10:36;24.75;;;7.05;;
11189;SDS011;5651;50.926;4.718;2023-02-01T01:13:01;31.13;;;7.47;;
11189;SDS011;5651;50.926;4.718;2023-02-01T01:15:27;23.73;;;7.97;;
11189;SDS011;5651;50.926;4.718;2023-02-01T01:17:53;19.75;;;7.63;;
11189;SDS011;5651;50.926;4.718;2023-02-01T01:20:19;21.83;;;6.30;;
11189;SDS011;5651;50.926;4.718;2023-02-01T01:22:47;20.02;;;7.03;;
11189;SDS011;5651;50.926;4.718;2023-02-01T01:25:13;18.98;;;6.57;;
11189;SDS011;5651;50.926;4.718;2023-02-01T01:27:39;20.50;;;6.18;;
11189;SDS011;5651;50.926;4.718;2023-02-01T01:30:05;21.42;;;5.90;;
11189;SDS011;5651;50.926;4.718;2023-02-01T01:32:32;18.80;;;7.05;;
11189;SDS011;5651;50.926;4.718;2023-02-01T01:34:58;24.17;;;6.65;;
11189;SDS011;5651;50.926;4.718;2023-02-01T01:37:24;25.65;;;7.78;;
11189;SDS011;5651;50.926;4.718;2023-02-01T01:39:50;36.20;;;8.63;;
11189;SDS011;5651;50.926;4.718;2023-02-01T01:42:15;19.42;;;5.95;;
11189;SDS011;5651;50.926;4.718;2023-02-01T01:45:01;30.55;;;6.30;;
11189;SDS011;5651;50.926;4.718;2023-02-01T01:47:51;18.70;;;5.82;;
11189;SDS011;5651;50.926;4.718;2023-02-01T01:50:21;22.08;;;5.10;;
11189;SDS011;5651;50.926;4.718;2023-02-01T01:52:51;21.90;;;5.80;;
11189;SDS011;5651;50.926;4.718;2023-02-01T01:55:21;14.63;;;4.82;;
11189;SDS011;5651;50.926;4.718;2023-02-01T01:57:51;15.00;;;5.30;;
11189;SDS011;5651;50.926;4.718;2023-02-01T02:00:29;22.23;;;4.78;;
11189;SDS011;5651;50.926;4.718;2023-02-01T02:02:58;17.42;;;5.15;;
11189;SDS011;5651;50.926;4.718;2023-02-01T02:05:29;18.83;;;4.68;;
11189;SDS011;5651;50.926;4.718;2023-02-01T02:07:57;20.20;;;5.90;;
11189;SDS011;5651;50.926;4.718;2023-02-01T02:10:26;23.40;;;5.82;;
11189;SDS011;5651;50.926;4.718;2023-02-01T02:13:13;15.52;;;5.90;;
11189;SDS011;5651;50.926;4.718;2023-02-01T02:15:43;20.55;;;6.05;;
11189;SDS011;5651;50.926;4.718;2023-02-01T02:18:42;17.38;;;5.45;;
11189;SDS011;5651;50.926;4.718;2023-02-01T02:34:32;19.52;;;5.65;;
11189;SDS011;5651;50.926;4.718;2023-02-01T02:37:05;16.33;;;4.03;;
11189;SDS011;5651;50.926;4.718;2023-02-01T02:40:03;22.33;;;4.95;;
11189;SDS011;5651;50.926;4.718;2023-02-01T02:51:35;24.25;;;5.30;;
11189;SDS011;5651;50.926;4.718;2023-02-01T02:54:36;19.75;;;4.45;;
11189;SDS011;5651;50.926;4.718;2023-02-01T02:57:19;14.45;;;3.55;;
11189;SDS011;5651;50.926;4.718;2023-02-01T03:00:05;20.42;;;3.97;;
11189;SDS011;5651;50.926;4.718;2023-02-01T03:02:52;18.45;;;5.07;;
11189;SDS011;5651;50.926;4.718;2023-02-01T03:05:40;26.02;;;5.72;;
11189;SDS011;5651;50.926;4.718;2023-02-01T03:08:13;21.90;;;4.65;;
11189;SDS011;5651;50.926;4.718;2023-02-01T03:16:29;17.50;;;4.82;;
11189;SDS011;5651;50.926;4.718;2023-02-01T03:19:06;17.30;;;4.15;;
11189;SDS011;5651;50.926;4.718;2023-02-01T03:21:55;17.70;;;4.43;;
11189;SDS011;5651;50.926;4.718;2023-02-01T03:24:30;15.02;;;4.32;;
11189;SDS011;5651;50.926;4.718;2023-02-01T03:27:20;19.67;;;4.68;;
11189;SDS011;5651;50.926;4.718;2023-02-01T03:32:26;17.23;;;5.13;;
11189;SDS011;5651;50.926;4.718;2023-02-01T03:34:52;22.77;;;5.28;;
11189;SDS011;5651;50.926;4.718;2023-02-01T03:37:26;21.85;;;5.50;;
11189;SDS011;5651;50.926;4.718;2023-02-01T03:42:27;25.23;;;4.93;;
11189;SDS011;5651;50.926;4.718;2023-02-01T03:45:04;17.98;;;4.18;;
11189;SDS011;5651;50.926;4.718;2023-02-01T03:47:33;20.45;;;4.40;;
11189;SDS011;5651;50.926;4.718;2023-02-01T03:50:04;17.20;;;4.47;;
11189;SDS011;5651;50.926;4.718;2023-02-01T03:52:36;17.35;;;4.82;;
11189;SDS011;5651;50.926;4.718;2023-02-01T03:55:06;20.30;;;4.18;;
11189;SDS011;5651;50.926;4.718;2023-02-01T03:57:34;30.35;;;6.40;;
11189;SDS011;5651;50.926;4.718;2023-02-01T04:00:04;21.80;;;4.13;;
11189;SDS011;5651;50.926;4.718;2023-02-01T04:02:42;20.83;;;4.88;;
11189;SDS011;5651;50.926;4.718;2023-02-01T04:05:08;18.45;;;3.78;;
11189;SDS011;5651;50.926;4.718;2023-02-01T04:07:34;18.45;;;3.75;;
11189;SDS011;5651;50.926;4.718;2023-02-01T04:09:59;20.05;;;4.13;;
11189;SDS011;5651;50.926;4.718;2023-02-01T04:12:25;22.70;;;6.10;;
11189;SDS011;5651;50.926;4.718;2023-02-01T04:14:51;21.50;;;5.90;;
11189;SDS011;5651;50.926;4.718;2023-02-01T04:17:17;19.45;;;4.43;;
11189;SDS011;5651;50.926;4.718;2023-02-01T04:19:42;18.00;;;4.55;;
11189;SDS011;5651;50.926;4.718;2023-02-01T04:22:08;20.40;;;4.07;;
11189;SDS011;5651;50.926;4.718;2023-02-01T04:24:33;21.65;;;5.65;;
11189;SDS011;5651;50.926;4.718;2023-02-01T04:26:59;23.05;;;5.22;;
11189;SDS011;5651;50.926;4.718;2023-02-01T04:29:25;21.73;;;5.10;;
11189;SDS011;5651;50.926;4.718;2023-02-01T04:31:50;18.10;;;4.32;;
11189;SDS011;5651;50.926;4.718;2023-02-01T04:34:16;22.92;;;5.15;;
11189;SDS011;5651;50.926;4.718;2023-02-01T04:36:42;24.00;;;4.07;;
11189;SDS011;5651;50.926;4.718;2023-02-01T04:39:08;23.83;;;4.75;;
11189;SDS011;5651;50.926;4.718;2023-02-01T04:41:35;15.90;;;3.55;;
11189;SDS011;5651;50.926;4.718;2023-02-01T04:44:01;26.25;;;4.97;;
11189;SDS011;5651;50.926;4.718;2023-02-01T04:46:27;20.52;;;4.05;;
11189;SDS011;5651;50.926;4.718;2023-02-01T04:48:52;18.15;;;4.43;;
11189;SDS011;5651;50.926;4.718;2023-02-01T04:51:18;25.85;;;5.40;;
11189;SDS011;5651;50.926;4.718;2023-02-01T04:53:44;20.27;;;5.35;;
11189;SDS011;5651;50.926;4.718;2023-02-01T04:56:10;20.58;;;5.38;;
11189;SDS011;5651;50.926;4.718;2023-02-01T04:58:36;21.77;;;4.88;;
11189;SDS011;5651;50.926;4.718;2023-02-01T05:01:02;18.30;;;4.05;;
11189;SDS011;5651;50.926;4.718;2023-02-01T05:03:30;16.13;;;3.85;;
11189;SDS011;5651;50.926;4.718;2023-02-01T05:05:57;19.27;;;6.03;;
11189;SDS011;5651;50.926;4.718;2023-02-01T05:08:22;22.30;;;4.80;;
11189;SDS011;5651;50.926;4.718;2023-02-01T05:10:50;23.35;;;4.72;;
11189;SDS011;5651;50.926;4.718;2023-02-01T05:13:16;19.60;;;4.05;;
11189;SDS011;5651;50.926;4.718;2023-02-01T05:16:00;20.85;;;4.53;;
11189;SDS011;5651;50.926;4.718;2023-02-01T05:18:26;23.40;;;4.75;;
11189;SDS011;5651;50.926;4.718;2023-02-01T05:20:51;14.07;;;3.55;;
11189;SDS011;5651;50.926;4.718;2023-02-01T05:23:17;23.55;;;5.03;;
11189;SDS011;5651;50.926;4.718;2023-02-01T05:25:43;22.92;;;4.60;;
11189;SDS011;5651;50.926;4.718;2023-02-01T05:28:09;25.05;;;4.40;;
11189;SDS011;5651;50.926;4.718;2023-02-01T05:30:34;20.15;;;4.45;;
11189;SDS011;5651;50.926;4.718;2023-02-01T05:33:01;19.90;;;4.75;;
11189;SDS011;5651;50.926;4.718;2023-02-01T05:35:27;23.95;;;4.82;;
11189;SDS011;5651;50.926;4.718;2023-02-01T05:37:53;19.55;;;4.30;;
11189;SDS011;5651;50.926;4.718;2023-02-01T05:40:19;19.40;;;4.90;;
11189;SDS011;5651;50.926;4.718;2023-02-01T05:42:44;23.10;;;4.55;;
11189;SDS011;5651;50.926;4.718;2023-02-01T05:45:10;18.33;;;4.03;;
11189;SDS011;5651;50.926;4.718;2023-02-01T05:47:36;16.50;;;3.95;;
11189;SDS011;5651;50.926;4.718;2023-02-01T05:50:02;19.50;;;4.15;;
11189;SDS011;5651;50.926;4.718;2023-02-01T05:52:29;24.40;;;5.97;;
11189;SDS011;5651;50.926;4.718;2023-02-01T05:54:55;20.92;;;4.43;;
11189;SDS011;5651;50.926;4.718;2023-02-01T05:57:21;23.48;;;5.20;;
11189;SDS011;5651;50.926;4.718;2023-02-01T05:59:47;18.55;;;5.07;;
11189;SDS011;5651;50.926;4.718;2023-02-01T06:02:14;21.27;;;4.30;;
11189;SDS011;5651;50.926;4.718;2023-02-01T06:04:40;20.08;;;5.63;;
11189;SDS011;5651;50.926;4.718;2023-02-01T06:07:06;16.05;;;4.05;;
11189;SDS011;5651;50.926;4.718;2023-02-01T06:09:34;14.30;;;4.43;;
11189;SDS011;5651;50.926;4.718;2023-02-01T06:12:01;30.23;;;6.25;;
11189;SDS011;5651;50.926;4.718;2023-02-01T06:14:27;22.23;;;4.82;;
11189;SDS011;5651;50.926;4.718;2023-02-01T06:16:53;20.55;;;4.72;;
11189;SDS011;5651;50.926;4.718;2023-02-01T06:19:20;24.77;;;4.28;;
11189;SDS011;5651;50.926;4.718;2023-02-01T06:21:46;20.50;;;5.25;;
11189;SDS011;5651;50.926;4.718;2023-02-01T06:24:12;19.38;;;4.93;;
11189;SDS011;5651;50.926;4.718;2023-02-01T06:26:38;18.92;;;3.58;;
11189;SDS011;5651;50.926;4.718;2023-02-01T06:29:05;18.48;;;4.32;;
11189;SDS011;5651;50.926;4.718;2023-02-01T06:31:32;16.40;;;4.75;;
11189;SDS011;5651;50.926;4.718;2023-02-01T06:33:58;19.20;;;3.92;;
11189;SDS011;5651;50.926;4.718;2023-02-01T06:36:24;17.80;;;4.53;;
11189;SDS011;5651;50.926;4.718;2023-02-01T06:38:49;27.98;;;5.30;;
11189;SDS011;5651;50.926;4.718;2023-02-01T06:41:15;22.17;;;5.55;;
11189;SDS011;5651;50.926;4.718;2023-02-01T06:43:41;21.30;;;4.43;;
11189;SDS011;5651;50.926;4.718;2023-02-01T06:46:09;20.50;;;4.53;;
11189;SDS011;5651;50.926;4.718;2023-02-01T06:48:37;20.52;;;4.10;;
11189;SDS011;5651;50.926;4.718;2023-02-01T06:51:03;20.33;;;4.05;;
11189;SDS011;5651;50.926;4.718;2023-02-01T06:53:28;19.38;;;4.68;;
11189;SDS011;5651;50.926;4.718;2023-02-01T06:55:55;18.27;;;4.55;;
11189;SDS011;5651;50.926;4.718;2023-02-01T06:58:28;22.25;;;4.20;;
11189;SDS011;5651;50.926;4.718;2023-02-01T07:00:57;22.92;;;4.25;;
11189;SDS011;5651;50.926;4.718;2023-02-01T07:03:29;20.30;;;4.88;;
11189;SDS011;5651;50.926;4.718;2023-02-01T07:05:55;15.57;;;3.42;;
11189;SDS011;5651;50.926;4.718;2023-02-01T07:08:24;21.80;;;4.00;;
11189;SDS011;5651;50.926;4.718;2023-02-01T07:10:52;18.92;;;4.70;;
11189;SDS011;5651;50.926;4.718;2023-02-01T07:13:17;19.63;;;3.85;;
11189;SDS011;5651;50.926;4.718;2023-02-01T07:15:43;23.40;;;4.78;;
11189;SDS011;5651;50.926;4.718;2023-02-01T07:18:09;17.40;;;4.30;;
11189;SDS011;5651;50.926;4.718;2023-02-01T07:20:35;23.90;;;5.30;;
11189;SDS011;5651;50.926;4.718;2023-02-01T07:23:00;11.18;;;4.30;;
11189;SDS011;5651;50.926;4.718;2023-02-01T07:25:26;20.90;;;5.10;;
11189;SDS011;5651;50.926;4.718;2023-02-01T07:27:52;22.27;;;5.90;;
11189;SDS011;5651;50.926;4.718;2023-02-01T07:30:17;14.85;;;3.85;;
11189;SDS011;5651;50.926;4.718;2023-02-01T07:32:43;20.40;;;4.50;;
11189;SDS011;5651;50.926;4.718;2023-02-01T07:35:09;16.13;;;4.88;;
11189;SDS011;5651;50.926;4.718;2023-02-01T07:37:34;22.17;;;4.38;;
11189;SDS011;5651;50.926;4.718;2023-02-01T07:40:00;14.18;;;4.20;;
11189;SDS011;5651;50.926;4.718;2023-02-01T07:42:26;24.65;;;5.28;;
11189;SDS011;5651;50.926;4.718;2023-02-01T07:44:51;15.82;;;4.57;;
11189;SDS011;5651;50.926;4.718;2023-02-01T07:47:17;26.45;;;5.38;;
11189;SDS011;5651;50.926;4.718;2023-02-01T07:49:43;27.88;;;6.00;;
11189;SDS011;5651;50.926;4.718;2023-02-01T07:52:08;23.55;;;5.10;;
11189;SDS011;5651;50.926;4.718;2023-02-01T07:54:36;14.68;;;5.35;;
11189;SDS011;5651;50.926;4.718;2023-02-01T07:57:02;23.10;;;4.30;;
11189;SDS011;5651;50.926;4.718;2023-02-01T07:59:27;20.75;;;4.47;;
11189;SDS011;5651;50.926;4.718;2023-02-01T08:01:53;24.50;;;4.45;;
11189;SDS011;5651;50.926;4.718;2023-02-01T08:04:19;19.20;;;4.60;;
11189;SDS011;5651;50.926;4.718;2023-02-01T08:06:45;17.67;;;4.82;;
11189;SDS011;5651;50.926;4.718;2023-02-01T08:09:11;24.30;;;4.57;;
11189;SDS011;5651;50.926;4.718;2023-02-01T08:11:36;20.83;;;4.82;;
11189;SDS011;5651;50.926;4.718;2023-02-01T08:14:03;31.65;;;5.15;;
11189;SDS011;5651;50.926;4.718;2023-02-01T08:16:30;19.00;;;4.25;;
11189;SDS011;5651;50.926;4.718;2023-02-01T08:18:56;17.30;;;4.95;;
11189;SDS011;5651;50.926;4.718;2023-02-01T08:21:22;21.92;;;4.32;;
11189;SDS011;5651;50.926;4.718;2023-02-01T08:24:02;23.88;;;4.50;;
11189;SDS011;5651;50.926;4.718;2023-02-01T08:26:29;22.73;;;6.18;;
11189;SDS011;5651;50.926;4.718;2023-02-01T08:28:55;17.75;;;5.07;;
11189;SDS011;5651;50.926;4.718;2023-02-01T08:31:24;19.40;;;4.55;;
11189;SDS011;5651;50.926;4.718;2023-02-01T08:33:53;21.42;;;3.90;;
11189;SDS011;5651;50.926;4.718;2023-02-01T08:36:20;14.00;;;3.90;;
11189;SDS011;5651;50.926;4.718;2023-02-01T08:38:46;20.05;;;4.28;;
11189;SDS011;5651;50.926;4.718;2023-02-01T08:41:14;22.55;;;5.28;;
11189;SDS011;5651;50.926;4.718;2023-02-01T08:43:41;22.92;;;4.88;;
11189;SDS011;5651;50.926;4.718;2023-02-01T08:46:08;22.85;;;4.22;;
11189;SDS011;5651;50.926;4.718;2023-02-01T08:48:34;21.25;;;5.35;;
11189;SDS011;5651;50.926;4.718;2023-02-01T08:51:01;19.73;;;4.53;;
11189;SDS011;5651;50.926;4.718;2023-02-01T08:53:28;22.60;;;4.90;;
11189;SDS011;5651;50.926;4.718;2023-02-01T08:55:54;19.20;;;4.55;;
11189;SDS011;5651;50.926;4.718;2023-02-01T08:58:20;23.13;;;5.20;;
11189;SDS011;5651;50.926;4.718;2023-02-01T09:00:47;23.73;;;4.90;;
11189;SDS011;5651;50.926;4.718;2023-02-01T09:03:16;23.10;;;5.25;;
11189;SDS011;5651;50.926;4.718;2023-02-01T09:05:42;21.20;;;4.07;;
11189;SDS011;5651;50.926;4.718;2023-02-01T09:08:08;20.45;;;5.63;;
11189;SDS011;5651;50.926;4.718;2023-02-01T09:10:34;18.40;;;4.45;;
11189;SDS011;5651;50.926;4.718;2023-02-01T09:13:01;16.70;;;4.90;;
11189;SDS011;5651;50.926;4.718;2023-02-01T09:15:28;21.50;;;5.30;;
11189;SDS011;5651;50.926;4.718;2023-02-01T09:17:53;15.20;;;4.53;;
11189;SDS011;5651;50.926;4.718;2023-02-01T09:20:19;23.75;;;5.85;;
11189;SDS011;5651;50.926;4.718;2023-02-01T09:22:50;19.90;;;4.05;;
11189;SDS011;5651;50.926;4.718;2023-02-01T09:25:20;26.65;;;4.82;;
11189;SDS011;5651;50.926;4.718;2023-02-01T09:27:46;17.02;;;4.88;;
11189;SDS011;5651;50.926;4.718;2023-02-01T09:30:11;30.10;;;5.57;;
11189;SDS011;5651;50.926;4.718;2023-02-01T09:32:37;15.27;;;5.03;;
11189;SDS011;5651;50.926;4.718;2023-02-01T09:35:03;20.27;;;5.43;;
11189;SDS011;5651;50.926;4.718;2023-02-01T09:37:29;15.88;;;4.28;;
11189;SDS011;5651;50.926;4.718;2023-02-01T09:39:55;21.80;;;6.30;;
11189;SDS011;5651;50.926;4.718;2023-02-01T09:42:25;20.60;;;4.68;;
11189;SDS011;5651;50.926;4.718;2023-02-01T09:48:14;22.75;;;4.38;;
11189;SDS011;5651;50.926;4.718;2023-02-01T09:50:48;17.33;;;4.82;;
11189;SDS011;5651;50.926;4.718;2023-02-01T09:53:34;17.17;;;4.90;;
11189;SDS011;5651;50.926;4.718;2023-02-01T09:56:26;17.33;;;4.45;;
11189;SDS011;5651;50.926;4.718;2023-02-01T10:01:36;17.38;;;4.00;;
11189;SDS011;5651;50.926;4.718;2023-02-01T10:04:04;16.08;;;4.60;;
11189;SDS011;5651;50.926;4.718;2023-02-01T10:06:35;22.17;;;4.53;;
11189;SDS011;5651;50.926;4.718;2023-02-01T10:15:15;23.67;;;4.50;;
11189;SDS011;5651;50.926;4.718;2023-02-01T10:17:53;21.95;;;4.32;;
11189;SDS011;5651;50.926;4.718;2023-02-01T10:26:23;19.35;;;4.20;;
11189;SDS011;5651;50.926;4.718;2023-02-01T10:28:51;28.70;;;6.38;;
11189;SDS011;5651;50.926;4.718;2023-02-01T10:31:23;17.08;;;4.60;;
11189;SDS011;5651;50.926;4.718;2023-02-01T10:34:03;20.63;;;4.05;;
11189;SDS011;5651;50.926;4.718;2023-02-01T10:36:40;19.55;;;4.38;;
11189;SDS011;5651;50.926;4.718;2023-02-01T10:39:11;26.95;;;5.25;;
11189;SDS011;5651;50.926;4.718;2023-02-01T10:41:40;17.20;;;4.80;;
11189;SDS011;5651;50.926;4.718;2023-02-01T10:44:12;17.27;;;4.07;;
11189;SDS011;5651;50.926;4.718;2023-02-01T10:46:41;16.15;;;3.92;;
11189;SDS011;5651;50.926;4.718;2023-02-01T10:49:17;20.45;;;3.78;;
11189;SDS011;5651;50.926;4.718;2023-02-01T10:51:51;16.10;;;4.15;;
11189;SDS011;5651;50.926;4.718;2023-02-01T10:54:34;16.83;;;4.20;;
11189;SDS011;5651;50.926;4.718;2023-02-01T10:57:03;15.07;;;3.67;;
11189;SDS011;5651;50.926;4.718;2023-02-01T10:59:33;19.00;;;4.47;;
11189;SDS011;5651;50.926;4.718;2023-02-01T11:02:05;16.30;;;4.10;;
11189;SDS011;5651;50.926;4.718;2023-02-01T11:04:41;21.42;;;3.92;;
11189;SDS011;5651;50.926;4.718;2023-02-01T11:07:12;20.27;;;3.78;;
11189;SDS011;5651;50.926;4.718;2023-02-01T11:09:39;18.55;;;4.10;;
11189;SDS011;5651;50.926;4.718;2023-02-01T11:12:25;12.50;;;3.83;;
11189;SDS011;5651;50.926;4.718;2023-02-01T11:17:42;17.05;;;4.38;;
11189;SDS011;5651;50.926;4.718;2023-02-01T11:20:15;22.15;;;4.57;;
11189;SDS011;5651;50.926;4.718;2023-02-01T11:22:49;15.77;;;3.88;;
11189;SDS011;5651;50.926;4.718;2023-02-01T11:25:20;19.63;;;4.10;;
11189;SDS011;5651;50.926;4.718;2023-02-01T11:27:46;14.55;;;3.50;;
11189;SDS011;5651;50.926;4.718;2023-02-01T11:30:15;20.10;;;3.80;;
11189;SDS011;5651;50.926;4.718;2023-02-01T11:32:44;18.77;;;3.47;;
11189;SDS011;5651;50.926;4.718;2023-02-01T11:35:14;17.83;;;4.07;;
11189;SDS011;5651;50.926;4.718;2023-02-01T11:37:44;14.75;;;4.38;;
11189;SDS011;5651;50.926;4.718;2023-02-01T11:42:56;13.00;;;3.10;;
11189;SDS011;5651;50.926;4.718;2023-02-01T11:45:25;21.67;;;4.05;;
11189;SDS011;5651;50.926;4.718;2023-02-01T11:47:52;16.80;;;3.30;;
11189;SDS011;5651;50.926;4.718;2023-02-01T11:50:21;15.48;;;3.10;;
11189;SDS011;5651;50.926;4.718;2023-02-01T12:01:45;16.85;;;3.97;;
11189;SDS011;5651;50.926;4.718;2023-02-01T12:07:09;12.80;;;3.30;;
11189;SDS011;5651;50.926;4.718;2023-02-01T12:12:36;16.10;;;3.17;;
11189;SDS011;5651;50.926;4.718;2023-02-01T12:28:48;14.13;;;3.28;;
11189;SDS011;5651;50.926;4.718;2023-02-01T12:31:43;10.35;;;2.78;;
11189;SDS011;5651;50.926;4.718;2023-02-01T12:43:07;11.65;;;3.17;;
11189;SDS011;5651;50.926;4.718;2023-02-01T12:48:23;11.63;;;3.10;;
11189;SDS011;5651;50.926;4.718;2023-02-01T12:50:53;9.73;;;2.77;;
11189;SDS011;5651;50.926;4.718;2023-02-01T12:53:23;10.65;;;2.47;;
11189;SDS011;5651;50.926;4.718;2023-02-01T12:55:51;16.25;;;3.35;;
11189;SDS011;5651;50.926;4.718;2023-02-01T13:01:18;13.40;;;2.50;;
11189;SDS011;5651;50.926;4.718;2023-02-01T13:04:25;14.80;;;2.85;;
11189;SDS011;5651;50.926;4.718;2023-02-01T13:06:52;14.70;;;2.30;;
11189;SDS011;5651;50.926;4.718;2023-02-01T13:09:41;12.20;;;2.97;;
11189;SDS011;5651;50.926;4.718;2023-02-01T13:14:46;12.90;;;3.75;;
11189;SDS011;5651;50.926;4.718;2023-02-01T13:17:19;34.38;;;7.18;;
11189;SDS011;5651;50.926;4.718;2023-02-01T13:19:54;14.25;;;2.83;;
11189;SDS011;5651;50.926;4.718;2023-02-01T13:27:30;12.63;;;2.78;;
11189;SDS011;5651;50.926;4.718;2023-02-01T13:30:02;10.05;;;2.35;;
11189;SDS011;5651;50.926;4.718;2023-02-01T13:41:42;8.98;;;2.00;;
11189;SDS011;5651;50.926;4.718;2023-02-01T13:44:38;11.02;;;2.70;;
11189;SDS011;5651;50.926;4.718;2023-02-01T13:47:16;12.98;;;2.47;;
11189;SDS011;5651;50.926;4.718;2023-02-01T13:49:48;12.35;;;2.80;;
11189;SDS011;5651;50.926;4.718;2023-02-01T13:52:23;10.07;;;2.85;;
11189;SDS011;5651;50.926;4.718;2023-02-01T13:54:49;10.75;;;2.33;;
11189;SDS011;5651;50.926;4.718;2023-02-01T13:57:35;15.65;;;3.42;;
11189;SDS011;5651;50.926;4.718;2023-02-01T14:00:49;12.45;;;2.92;;
11189;SDS011;5651;50.926;4.718;2023-02-01T14:02:50;16.75;;;3.42;;
11189;SDS011;5651;50.926;4.718;2023-02-01T14:10:49;9.05;;;2.10;;
11189;SDS011;5651;50.926;4.718;2023-02-01T14:13:26;14.45;;;2.65;;
11189;SDS011;5651;50.926;4.718;2023-02-01T14:23:38;15.88;;;3.58;;
11189;SDS011;5651;50.926;4.718;2023-02-01T14:26:06;16.10;;;2.35;;
11189;SDS011;5651;50.926;4.718;2023-02-01T14:28:35;18.08;;;3.10;;
11189;SDS011;5651;50.926;4.718;2023-02-01T14:34:11;12.80;;;2.87;;
11189;SDS011;5651;50.926;4.718;2023-02-01T14:36:50;11.82;;;2.60;;
11189;SDS011;5651;50.926;4.718;2023-02-01T14:39:25;14.40;;;2.60;;
11189;SDS011;5651;50.926;4.718;2023-02-01T14:42:14;10.82;;;2.15;;
11189;SDS011;5651;50.926;4.718;2023-02-01T14:46:01;14.57;;;2.55;;
11189;SDS011;5651;50.926;4.718;2023-02-01T14:58:15;14.60;;;3.03;;
11189;SDS011;5651;50.926;4.718;2023-02-01T15:00:48;12.63;;;2.97;;
11189;SDS011;5651;50.926;4.718;2023-02-01T15:08:46;14.82;;;2.83;;
11189;SDS011;5651;50.926;4.718;2023-02-01T15:11:14;11.73;;;3.10;;
11189;SDS011;5651;50.926;4.718;2023-02-01T15:13:47;13.70;;;3.50;;
11189;SDS011;5651;50.926;4.718;2023-02-01T15:16:15;12.65;;;2.95;;
11189;SDS011;5651;50.926;4.718;2023-02-01T15:18:42;14.85;;;3.20;;
11189;SDS011;5651;50.926;4.718;2023-02-01T15:21:19;11.00;;;2.38;;
11189;SDS011;5651;50.926;4.718;2023-02-01T15:23:46;12.30;;;3.30;;
11189;SDS011;5651;50.926;4.718;2023-02-01T15:26:30;11.05;;;3.17;;
11189;SDS011;5651;50.926;4.718;2023-02-01T15:28:57;16.90;;;3.35;;
11189;SDS011;5651;50.926;4.718;2023-02-01T15:31:35;14.55;;;4.03;;
11189;SDS011;5651;50.926;4.718;2023-02-01T15:34:21;15.15;;;3.78;;
11189;SDS011;5651;50.926;4.718;2023-02-01T15:36:47;11.98;;;2.40;;
11189;SDS011;5651;50.926;4.718;2023-02-01T15:39:23;7.57;;;2.30;;
11189;SDS011;5651;50.926;4.718;2023-02-01T15:44:30;15.90;;;3.67;;
11189;SDS011;5651;50.926;4.718;2023-02-01T15:46:59;7.72;;;2.58;;
11189;SDS011;5651;50.926;4.718;2023-02-01T15:49:32;18.42;;;3.25;;
11189;SDS011;5651;50.926;4.718;2023-02-01T15:52:02;11.70;;;2.97;;
11189;SDS011;5651;50.926;4.718;2023-02-01T15:54:41;15.63;;;3.10;;
11189;SDS011;5651;50.926;4.718;2023-02-01T15:57:11;17.90;;;3.33;;
11189;SDS011;5651;50.926;4.718;2023-02-01T15:59:45;14.82;;;3.65;;
11189;SDS011;5651;50.926;4.718;2023-02-01T16:02:25;17.30;;;3.05;;
11189;SDS011;5651;50.926;4.718;2023-02-01T16:04:59;13.80;;;3.15;;
11189;SDS011;5651;50.926;4.718;2023-02-01T16:07:35;14.13;;;4.18;;
11189;SDS011;5651;50.926;4.718;2023-02-01T16:10:01;15.82;;;4.15;;
11189;SDS011;5651;50.926;4.718;2023-02-01T16:12:45;13.35;;;3.75;;
11189;SDS011;5651;50.926;4.718;2023-02-01T16:15:12;14.30;;;2.97;;
11189;SDS011;5651;50.926;4.718;2023-02-01T16:17:38;14.40;;;3.15;;
11189;SDS011;5651;50.926;4.718;2023-02-01T16:20:03;25.73;;;12.07;;
11189;SDS011;5651;50.926;4.718;2023-02-01T16:22:29;15.52;;;3.25;;
11189;SDS011;5651;50.926;4.718;2023-02-01T16:24:55;10.98;;;3.50;;
11189;SDS011;5651;50.926;4.718;2023-02-01T16:27:22;13.90;;;4.50;;
11189;SDS011;5651;50.926;4.718;2023-02-01T16:29:48;15.25;;;3.42;;
11189;SDS011;5651;50.926;4.718;2023-02-01T16:32:16;14.93;;;4.05;;
11189;SDS011;5651;50.926;4.718;2023-02-01T16:34:44;17.70;;;3.55;;
11189;SDS011;5651;50.926;4.718;2023-02-01T16:37:16;16.27;;;3.88;;
11189;SDS011;5651;50.926;4.718;2023-02-01T16:39:46;15.18;;;4.20;;
11189;SDS011;5651;50.926;4.718;2023-02-01T16:42:12;18.20;;;4.18;;
11189;SDS011;5651;50.926;4.718;2023-02-01T16:44:39;16.70;;;3.67;;
11189;SDS011;5651;50.926;4.718;2023-02-01T16:47:16;20.67;;;9.35;;
11189;SDS011;5651;50.926;4.718;2023-02-01T16:49:44;32.95;;;17.15;;
11189;SDS011;5651;50.926;4.718;2023-02-01T16:52:21;111.75;;;18.67;;
11189;SDS011;5651;50.926;4.718;2023-02-01T16:54:48;31.73;;;6.03;;
11189;SDS011;5651;50.926;4.718;2023-02-01T16:57:15;37.90;;;9.35;;
11189;SDS011;5651;50.926;4.718;2023-02-01T16:59:42;46.90;;;15.93;;
11189;SDS011;5651;50.926;4.718;2023-02-01T17:02:12;24.70;;;6.20;;
11189;SDS011;5651;50.926;4.718;2023-02-01T17:04:39;24.27;;;8.32;;
11189;SDS011;5651;50.926;4.718;2023-02-01T17:07:05;18.70;;;4.57;;
11189;SDS011;5651;50.926;4.718;2023-02-01T17:09:37;20.88;;;6.10;;
11189;SDS011;5651;50.926;4.718;2023-02-01T17:12:04;17.33;;;3.53;;
11189;SDS011;5651;50.926;4.718;2023-02-01T17:14:30;20.08;;;4.22;;
11189;SDS011;5651;50.926;4.718;2023-02-01T17:17:00;16.25;;;4.30;;
11189;SDS011;5651;50.926;4.718;2023-02-01T17:19:26;21.77;;;4.35;;
11189;SDS011;5651;50.926;4.718;2023-02-01T17:21:52;22.23;;;5.85;;
11189;SDS011;5651;50.926;4.718;2023-02-01T17:24:22;15.95;;;3.53;;
11189;SDS011;5651;50.926;4.718;2023-02-01T17:26:49;13.35;;;4.13;;
11189;SDS011;5651;50.926;4.718;2023-02-01T17:29:16;11.55;;;2.70;;
11189;SDS011;5651;50.926;4.718;2023-02-01T17:31:43;22.13;;;4.20;;
11189;SDS011;5651;50.926;4.718;2023-02-01T17:34:12;16.20;;;3.65;;
11189;SDS011;5651;50.926;4.718;2023-02-01T17:36:40;20.95;;;4.15;;